Portada
METAR-TAF:

METAR-TAF

Aeroports :

Vladivostok, Rússia

latitud: 43-07N, longitud: 131-56E, altitud: 184 m

Observació

L'informe es va fer fa 37 minuts, a les 09:00 UTC
Vent 4 kt del Nord/Nord-Oest
Temperatura 17°C
Humitat 32%
Pressió 1016 hPa
Visibilitat 10 km o més

METAR: UHWW 240900Z 34002MPS 9999 NSC 17/00 Q1016 R25L/0///70 NOSIG RMK QFE761

Hora: 19:37 (09:37 UTC)

Pronòstic

L'informe es va fer fa 1 hora i 37 minuts, a les 08:00 UTC
Pronòstic vàlid del 24 a les 09 UTC al 25 a les 09 UTC
Vent 6 kt del Nord
Visibilitat 10 km o més
Temporalment
l' 24 a les 09 UTC al 24 a les 12 UTC
Núvols disperses a una alçada de 2600 ft, Cumulonimbus.
Evolucionant progressivament
l' 25 a les 04 UTC al 25 a les 07 UTC
Vent 6 kt del Sud/Sud-Oest
Núvols disperses a una alçada de 2000 ft

TAF: UHWW 240800Z 2409/2509 36003MPS 9999 NSC TEMPO 2409/2412 SCT026CB BECMG 2504/2507 20003MPS SCT020

Observacions i pronòstics meteorològics de més de 4000 aeroports (METAR i TAF).

Les estacions disponibles són els punts grocs i vermells al mapa.

Posi el ratolí al punt desitjat per veure el nom de l'estació.

Feu clic per veure les observacions i els pronòstics meteorològics.

Per canviar el mapa: feu clic els botons verds amb una creu de color negre per apropar; al botó verd amb un guió per allunyar la imatge; o en les fletxes verdes per a mapes adjacents.


METAR-TAF: